sensor_id;sensor_type;location;lat;lon;timestamp;pressure;altitude;pressure_sealevel;temperature;humidity
48041;BME280;33815;48.386;11.738;2023-08-06T00:01:17;95818.69;;;13.34;100.00
48041;BME280;33815;48.386;11.738;2023-08-06T00:03:46;95822.97;;;13.35;100.00
48041;BME280;33815;48.386;11.738;2023-08-06T00:06:11;95824.81;;;13.42;100.00
48041;BME280;33815;48.386;11.738;2023-08-06T00:08:36;95826.00;;;13.39;100.00
48041;BME280;33815;48.386;11.738;2023-08-06T00:11:01;95818.50;;;13.51;100.00
48041;BME280;33815;48.386;11.738;2023-08-06T00:13:26;95828.88;;;13.44;100.00
48041;BME280;33815;48.386;11.738;2023-08-06T00:15:52;95827.53;;;13.48;100.00
48041;BME280;33815;48.386;11.738;2023-08-06T00:18:17;95828.00;;;13.37;100.00
48041;BME280;33815;48.386;11.738;2023-08-06T00:20:42;95829.69;;;13.45;100.00
48041;BME280;33815;48.386;11.738;2023-08-06T00:23:07;95833.13;;;13.45;100.00
48041;BME280;33815;48.386;11.738;2023-08-06T00:25:33;95835.31;;;13.42;100.00
48041;BME280;33815;48.386;11.738;2023-08-06T00:27:58;95836.56;;;13.46;100.00
48041;BME280;33815;48.386;11.738;2023-08-06T00:30:26;95832.69;;;13.42;100.00
48041;BME280;33815;48.386;11.738;2023-08-06T00:32:51;95830.00;;;13.35;100.00
48041;BME280;33815;48.386;11.738;2023-08-06T00:35:16;95830.00;;;13.35;100.00
48041;BME280;33815;48.386;11.738;2023-08-06T00:37:41;95838.84;;;13.34;100.00
48041;BME280;33815;48.386;11.738;2023-08-06T00:40:07;95841.00;;;13.30;100.00
48041;BME280;33815;48.386;11.738;2023-08-06T00:42:33;95834.69;;;13.25;100.00
48041;BME280;33815;48.386;11.738;2023-08-06T00:44:59;95829.69;;;13.08;100.00
48041;BME280;33815;48.386;11.738;2023-08-06T00:47:24;95820.47;;;13.12;100.00
48041;BME280;33815;48.386;11.738;2023-08-06T00:49:50;95822.88;;;12.92;100.00
48041;BME280;33815;48.386;11.738;2023-08-06T00:52:15;95809.19;;;12.75;100.00
48041;BME280;33815;48.386;11.738;2023-08-06T00:54:40;95801.28;;;12.68;100.00
48041;BME280;33815;48.386;11.738;2023-08-06T00:57:05;95803.09;;;12.68;100.00
48041;BME280;33815;48.386;11.738;2023-08-06T00:59:32;95800.81;;;12.65;100.00
48041;BME280;33815;48.386;11.738;2023-08-06T01:01:57;95799.53;;;12.61;100.00
48041;BME280;33815;48.386;11.738;2023-08-06T01:04:23;95799.13;;;12.57;100.00
48041;BME280;33815;48.386;11.738;2023-08-06T01:06:48;95801.28;;;12.54;100.00
48041;BME280;33815;48.386;11.738;2023-08-06T01:12:12;95800.09;;;12.56;100.00
48041;BME280;33815;48.386;11.738;2023-08-06T01:14:48;95797.22;;;12.51;100.00
48041;BME280;33815;48.386;11.738;2023-08-06T01:17:17;95805.16;;;12.58;100.00
48041;BME280;33815;48.386;11.738;2023-08-06T01:19:42;95798.94;;;12.59;100.00
48041;BME280;33815;48.386;11.738;2023-08-06T01:22:07;95797.50;;;12.56;100.00
48041;BME280;33815;48.386;11.738;2023-08-06T01:24:33;95796.22;;;12.52;100.00
48041;BME280;33815;48.386;11.738;2023-08-06T01:27:00;95798.03;;;12.51;100.00
48041;BME280;33815;48.386;11.738;2023-08-06T01:29:30;95800.00;;;12.49;100.00
48041;BME280;33815;48.386;11.738;2023-08-06T01:31:56;95797.94;;;12.45;100.00
48041;BME280;33815;48.386;11.738;2023-08-06T01:34:27;95798.41;;;12.48;100.00
48041;BME280;33815;48.386;11.738;2023-08-06T01:36:53;95798.13;;;12.43;100.00
48041;BME280;33815;48.386;11.738;2023-08-06T01:39:19;95806.06;;;12.50;100.00
48041;BME280;33815;48.386;11.738;2023-08-06T01:41:48;95809.75;;;12.56;100.00
48041;BME280;33815;48.386;11.738;2023-08-06T01:44:13;95802.44;;;12.51;100.00
48041;BME280;33815;48.386;11.738;2023-08-06T01:46:39;95801.09;;;12.55;100.00
48041;BME280;33815;48.386;11.738;2023-08-06T01:49:04;95800.19;;;12.63;100.00
48041;BME280;33815;48.386;11.738;2023-08-06T01:51:29;95800.56;;;12.60;100.00
48041;BME280;33815;48.386;11.738;2023-08-06T01:53:54;95793.41;;;12.68;100.00
48041;BME280;33815;48.386;11.738;2023-08-06T01:56:19;95791.53;;;12.62;100.00
48041;BME280;33815;48.386;11.738;2023-08-06T01:58:44;95789.75;;;12.63;100.00
48041;BME280;33815;48.386;11.738;2023-08-06T02:01:10;95790.00;;;12.68;100.00
48041;BME280;33815;48.386;11.738;2023-08-06T02:03:35;95792.44;;;12.70;100.00
48041;BME280;33815;48.386;11.738;2023-08-06T02:06:00;95791.78;;;12.67;100.00
48041;BME280;33815;48.386;11.738;2023-08-06T02:08:26;95793.59;;;12.67;100.00
48041;BME280;33815;48.386;11.738;2023-08-06T02:10:52;95789.75;;;12.63;100.00
48041;BME280;33815;48.386;11.738;2023-08-06T02:13:17;95788.84;;;12.56;100.00
48041;BME280;33815;48.386;11.738;2023-08-06T02:15:43;95787.59;;;12.51;100.00
48041;BME280;33815;48.386;11.738;2023-08-06T02:18:08;95788.19;;;12.54;100.00
48041;BME280;33815;48.386;11.738;2023-08-06T02:20:34;95794.06;;;12.56;100.00
48041;BME280;33815;48.386;11.738;2023-08-06T02:22:59;95784.88;;;12.60;100.00
48041;BME280;33815;48.386;11.738;2023-08-06T02:25:24;95787.84;;;12.57;100.00
48041;BME280;33815;48.386;11.738;2023-08-06T02:27:49;95782.59;;;12.57;100.00
48041;BME280;33815;48.386;11.738;2023-08-06T02:30:14;95773.44;;;12.46;100.00
48041;BME280;33815;48.386;11.738;2023-08-06T02:32:39;95771.72;;;12.38;100.00
48041;BME280;33815;48.386;11.738;2023-08-06T02:35:05;95773.34;;;12.39;100.00
48041;BME280;33815;48.386;11.738;2023-08-06T02:37:32;95769.66;;;12.48;100.00
48041;BME280;33815;48.386;11.738;2023-08-06T02:39:57;95761.81;;;12.48;100.00
48041;BME280;33815;48.386;11.738;2023-08-06T02:42:22;95766.69;;;12.37;100.00
48041;BME280;33815;48.386;11.738;2023-08-06T02:44:48;95758.56;;;12.31;100.00
48041;BME280;33815;48.386;11.738;2023-08-06T02:47:13;95752.72;;;12.29;100.00
48041;BME280;33815;48.386;11.738;2023-08-06T02:49:38;95750.28;;;12.28;100.00
48041;BME280;33815;48.386;11.738;2023-08-06T02:52:04;95737.59;;;12.25;100.00
48041;BME280;33815;48.386;11.738;2023-08-06T02:54:29;95743.81;;;12.24;100.00
48041;BME280;33815;48.386;11.738;2023-08-06T02:56:54;95746.78;;;12.21;100.00
48041;BME280;33815;48.386;11.738;2023-08-06T02:59:19;95741.94;;;12.18;100.00
48041;BME280;33815;48.386;11.738;2023-08-06T03:01:44;95741.09;;;12.17;100.00
48041;BME280;33815;48.386;11.738;2023-08-06T03:04:10;95736.06;;;12.15;100.00
48041;BME280;33815;48.386;11.738;2023-08-06T03:06:35;95726.88;;;12.20;100.00
48041;BME280;33815;48.386;11.738;2023-08-06T03:09:00;95724.16;;;12.13;100.00
48041;BME280;33815;48.386;11.738;2023-08-06T03:11:25;95724.72;;;12.08;100.00
48041;BME280;33815;48.386;11.738;2023-08-06T03:13:50;95718.69;;;12.08;100.00
48041;BME280;33815;48.386;11.738;2023-08-06T03:16:16;95723.66;;;12.03;100.00
48041;BME280;33815;48.386;11.738;2023-08-06T03:18:41;95728.88;;;12.03;100.00
48041;BME280;33815;48.386;11.738;2023-08-06T03:21:06;95721.41;;;11.99;100.00
48041;BME280;33815;48.386;11.738;2023-08-06T03:23:31;95733.00;;;11.97;100.00
48041;BME280;33815;48.386;11.738;2023-08-06T03:26:01;95726.81;;;11.98;100.00
48041;BME280;33815;48.386;11.738;2023-08-06T03:28:26;95732.50;;;11.93;100.00
48041;BME280;33815;48.386;11.738;2023-08-06T03:30:58;95728.31;;;11.92;100.00
48041;BME280;33815;48.386;11.738;2023-08-06T03:33:24;95735.81;;;11.95;100.00
48041;BME280;33815;48.386;11.738;2023-08-06T03:35:49;95731.72;;;11.93;100.00
48041;BME280;33815;48.386;11.738;2023-08-06T03:38:14;95726.84;;;11.90;100.00
48041;BME280;33815;48.386;11.738;2023-08-06T03:40:39;95726.22;;;11.88;100.00
48041;BME280;33815;48.386;11.738;2023-08-06T03:43:04;95726.03;;;11.89;100.00
48041;BME280;33815;48.386;11.738;2023-08-06T03:45:29;95726.56;;;11.85;100.00
48041;BME280;33815;48.386;11.738;2023-08-06T03:47:55;95723.34;;;11.82;100.00
48041;BME280;33815;48.386;11.738;2023-08-06T03:50:20;95728.56;;;11.82;100.00
48041;BME280;33815;48.386;11.738;2023-08-06T03:52:45;95722.50;;;11.82;100.00
48041;BME280;33815;48.386;11.738;2023-08-06T03:55:10;95726.47;;;11.78;100.00
48041;BME280;33815;48.386;11.738;2023-08-06T03:57:35;95717.84;;;11.77;100.00
48041;BME280;33815;48.386;11.738;2023-08-06T04:00:01;95721.78;;;11.73;100.00
48041;BME280;33815;48.386;11.738;2023-08-06T04:02:26;95719.53;;;11.70;100.00
48041;BME280;33815;48.386;11.738;2023-08-06T04:04:51;95722.94;;;11.71;100.00
48041;BME280;33815;48.386;11.738;2023-08-06T04:07:18;95711.34;;;11.73;100.00
48041;BME280;33815;48.386;11.738;2023-08-06T04:09:59;95718.91;;;11.68;100.00
48041;BME280;33815;48.386;11.738;2023-08-06T04:12:25;95719.44;;;11.63;100.00
48041;BME280;33815;48.386;11.738;2023-08-06T04:14:50;95723.56;;;11.58;100.00
48041;BME280;33815;48.386;11.738;2023-08-06T04:17:17;95718.72;;;11.55;100.00
48041;BME280;33815;48.386;11.738;2023-08-06T04:19:45;95725.28;;;11.51;100.00
48041;BME280;33815;48.386;11.738;2023-08-06T04:22:10;95728.69;;;11.51;100.00
48041;BME280;33815;48.386;11.738;2023-08-06T04:24:35;95727.22;;;11.48;100.00
48041;BME280;33815;48.386;11.738;2023-08-06T04:27:00;95731.47;;;11.49;100.00
48041;BME280;33815;48.386;11.738;2023-08-06T04:29:25;95731.81;;;11.46;100.00
48041;BME280;33815;48.386;11.738;2023-08-06T04:31:51;95727.59;;;11.45;100.00
48041;BME280;33815;48.386;11.738;2023-08-06T04:34:16;95726.59;;;11.46;100.00
48041;BME280;33815;48.386;11.738;2023-08-06T04:36:41;95726.06;;;11.51;100.00
48041;BME280;33815;48.386;11.738;2023-08-06T04:39:06;95726.72;;;11.53;100.00
48041;BME280;33815;48.386;11.738;2023-08-06T04:41:31;95723.56;;;11.58;100.00
48041;BME280;33815;48.386;11.738;2023-08-06T04:43:56;95722.53;;;11.67;100.00
48041;BME280;33815;48.386;11.738;2023-08-06T04:46:22;95713.78;;;11.75;100.00
48041;BME280;33815;48.386;11.738;2023-08-06T04:48:47;95721.91;;;11.80;100.00
48041;BME280;33815;48.386;11.738;2023-08-06T04:51:12;95717.19;;;11.75;100.00
48041;BME280;33815;48.386;11.738;2023-08-06T04:53:37;95719.09;;;11.81;100.00
48041;BME280;33815;48.386;11.738;2023-08-06T04:56:03;95716.22;;;11.76;100.00
48041;BME280;33815;48.386;11.738;2023-08-06T04:58:28;95716.13;;;11.85;100.00
48041;BME280;33815;48.386;11.738;2023-08-06T05:00:53;95719.94;;;11.97;100.00
48041;BME280;33815;48.386;11.738;2023-08-06T05:03:19;95720.47;;;12.07;100.00
48041;BME280;33815;48.386;11.738;2023-08-06T05:05:45;95719.03;;;12.20;100.00
48041;BME280;33815;48.386;11.738;2023-08-06T05:08:13;95716.88;;;12.23;100.00
48041;BME280;33815;48.386;11.738;2023-08-06T05:10:41;95710.81;;;12.38;100.00
48041;BME280;33815;48.386;11.738;2023-08-06T05:13:07;95712.06;;;12.42;100.00
48041;BME280;33815;48.386;11.738;2023-08-06T05:15:32;95714.03;;;12.55;100.00
48041;BME280;33815;48.386;11.738;2023-08-06T05:17:58;95709.75;;;12.68;100.00
48041;BME280;33815;48.386;11.738;2023-08-06T05:20:23;95716.25;;;12.73;100.00
48041;BME280;33815;48.386;11.738;2023-08-06T05:22:48;95712.78;;;13.09;100.00
48041;BME280;33815;48.386;11.738;2023-08-06T05:25:13;95715.66;;;12.92;100.00
48041;BME280;33815;48.386;11.738;2023-08-06T05:27:39;95714.13;;;12.83;100.00
48041;BME280;33815;48.386;11.738;2023-08-06T05:30:04;95715.94;;;12.82;100.00
48041;BME280;33815;48.386;11.738;2023-08-06T05:32:30;95722.06;;;12.90;100.00
48041;BME280;33815;48.386;11.738;2023-08-06T05:34:55;95718.44;;;12.91;100.00
48041;BME280;33815;48.386;11.738;2023-08-06T05:37:20;95710.72;;;12.82;100.00
48041;BME280;33815;48.386;11.738;2023-08-06T05:39:45;95713.94;;;12.84;100.00
48041;BME280;33815;48.386;11.738;2023-08-06T05:42:10;95709.09;;;12.81;100.00
48041;BME280;33815;48.386;11.738;2023-08-06T05:44:36;95711.44;;;12.76;100.00
48041;BME280;33815;48.386;11.738;2023-08-06T05:47:01;95714.25;;;12.75;100.00
48041;BME280;33815;48.386;11.738;2023-08-06T05:49:26;95722.72;;;12.77;100.00
48041;BME280;33815;48.386;11.738;2023-08-06T05:51:51;95712.88;;;12.79;100.00
48041;BME280;33815;48.386;11.738;2023-08-06T05:54:18;95710.72;;;12.82;100.00
48041;BME280;33815;48.386;11.738;2023-08-06T05:56:43;95706.34;;;12.90;100.00
48041;BME280;33815;48.386;11.738;2023-08-06T05:59:08;95709.03;;;12.96;100.00
48041;BME280;33815;48.386;11.738;2023-08-06T06:01:34;95723.72;;;12.97;100.00
48041;BME280;33815;48.386;11.738;2023-08-06T06:03:59;95716.44;;;12.93;100.00
48041;BME280;33815;48.386;11.738;2023-08-06T06:06:24;95714.41;;;12.88;100.00
48041;BME280;33815;48.386;11.738;2023-08-06T06:08:49;95718.44;;;12.91;100.00
48041;BME280;33815;48.386;11.738;2023-08-06T06:11:14;95717.09;;;12.95;100.00
48041;BME280;33815;48.386;11.738;2023-08-06T06:13:39;95715.53;;;13.00;100.00
48041;BME280;33815;48.386;11.738;2023-08-06T06:16:05;95716.59;;;13.06;100.00
48041;BME280;33815;48.386;11.738;2023-08-06T06:18:30;95720.00;;;13.07;100.00
48041;BME280;33815;48.386;11.738;2023-08-06T06:20:55;95723.28;;;13.15;100.00
48041;BME280;33815;48.386;11.738;2023-08-06T06:23:20;95718.44;;;13.12;100.00
48041;BME280;33815;48.386;11.738;2023-08-06T06:25:49;95717.94;;;13.24;100.00
48041;BME280;33815;48.386;11.738;2023-08-06T06:28:16;95723.44;;;13.29;100.00
48041;BME280;33815;48.386;11.738;2023-08-06T06:30:41;95719.50;;;13.18;100.00
48041;BME280;33815;48.386;11.738;2023-08-06T06:33:07;95722.13;;;13.18;100.00
48041;BME280;33815;48.386;11.738;2023-08-06T06:35:32;95721.72;;;13.21;100.00
48041;BME280;33815;48.386;11.738;2023-08-06T06:37:57;95722.13;;;13.18;100.00
48041;BME280;33815;48.386;11.738;2023-08-06T06:40:22;95723.94;;;13.17;100.00
48041;BME280;33815;48.386;11.738;2023-08-06T06:42:47;95727.53;;;13.16;100.00
48041;BME280;33815;48.386;11.738;2023-08-06T06:45:13;95729.78;;;13.19;100.00
48041;BME280;33815;48.386;11.738;2023-08-06T06:47:38;95725.19;;;13.22;100.00
48041;BME280;33815;48.386;11.738;2023-08-06T06:50:03;95723.16;;;13.24;100.00
48041;BME280;33815;48.386;11.738;2023-08-06T06:52:29;95728.34;;;13.17;100.00
48041;BME280;33815;48.386;11.738;2023-08-06T06:54:54;95728.66;;;13.07;100.00
48041;BME280;33815;48.386;11.738;2023-08-06T06:57:19;95724.31;;;13.14;100.00
48041;BME280;33815;48.386;11.738;2023-08-06T06:59:45;95728.19;;;13.18;100.00
48041;BME280;33815;48.386;11.738;2023-08-06T07:02:10;95728.28;;;13.32;100.00
48041;BME280;33815;48.386;11.738;2023-08-06T07:04:35;95719.56;;;13.46;100.00
48041;BME280;33815;48.386;11.738;2023-08-06T07:07:00;95712.06;;;13.65;100.00
48041;BME280;33815;48.386;11.738;2023-08-06T07:09:26;95707.28;;;13.75;100.00
48041;BME280;33815;48.386;11.738;2023-08-06T07:11:51;95702.06;;;13.75;100.00
48041;BME280;33815;48.386;11.738;2023-08-06T07:14:17;95700.78;;;13.99;100.00
48041;BME280;33815;48.386;11.738;2023-08-06T07:16:42;95703.88;;;14.16;100.00
48041;BME280;33815;48.386;11.738;2023-08-06T07:19:07;95697.31;;;14.34;100.00
48041;BME280;33815;48.386;11.738;2023-08-06T07:21:32;95700.63;;;14.49;100.00
48041;BME280;33815;48.386;11.738;2023-08-06T07:23:57;95697.88;;;14.71;100.00
48041;BME280;33815;48.386;11.738;2023-08-06T07:26:24;95691.47;;;14.87;100.00
48041;BME280;33815;48.386;11.738;2023-08-06T07:28:49;95691.22;;;14.68;100.00
48041;BME280;33815;48.386;11.738;2023-08-06T07:31:14;95688.19;;;14.78;100.00
48041;BME280;33815;48.386;11.738;2023-08-06T07:33:40;95692.44;;;14.72;100.00
48041;BME280;33815;48.386;11.738;2023-08-06T07:36:09;95680.34;;;14.85;100.00
48041;BME280;33815;48.386;11.738;2023-08-06T07:38:34;95686.25;;;15.07;100.00
48041;BME280;33815;48.386;11.738;2023-08-06T07:41:01;95685.44;;;15.27;100.00
48041;BME280;33815;48.386;11.738;2023-08-06T07:43:26;95677.97;;;15.37;100.00
48041;BME280;33815;48.386;11.738;2023-08-06T07:45:52;95676.56;;;15.41;100.00
48041;BME280;33815;48.386;11.738;2023-08-06T07:48:17;95681.78;;;15.61;100.00
48041;BME280;33815;48.386;11.738;2023-08-06T07:50:42;95672.28;;;15.67;100.00
48041;BME280;33815;48.386;11.738;2023-08-06T07:53:08;95670.09;;;15.57;100.00
48041;BME280;33815;48.386;11.738;2023-08-06T07:55:33;95667.69;;;15.22;100.00
48041;BME280;33815;48.386;11.738;2023-08-06T07:57:58;95666.06;;;15.28;100.00
48041;BME280;33815;48.386;11.738;2023-08-06T08:00:23;95668.69;;;15.28;100.00
48041;BME280;33815;48.386;11.738;2023-08-06T08:02:48;95666.44;;;15.58;100.00
48041;BME280;33815;48.386;11.738;2023-08-06T08:05:14;95659.56;;;15.70;100.00
48041;BME280;33815;48.386;11.738;2023-08-06T08:07:39;95668.84;;;15.86;100.00
48041;BME280;33815;48.386;11.738;2023-08-06T08:10:04;95673.09;;;15.94;100.00
48041;BME280;33815;48.386;11.738;2023-08-06T08:12:30;95676.13;;;15.91;100.00
48041;BME280;33815;48.386;11.738;2023-08-06T08:14:55;95676.28;;;16.09;100.00
48041;BME280;33815;48.386;11.738;2023-08-06T08:17:20;95675.03;;;16.19;100.00
48041;BME280;33815;48.386;11.738;2023-08-06T08:19:45;95675.78;;;16.33;100.00
48041;BME280;33815;48.386;11.738;2023-08-06T08:22:11;95675.22;;;16.24;100.00
48041;BME280;33815;48.386;11.738;2023-08-06T08:24:36;95663.22;;;16.41;100.00
48041;BME280;33815;48.386;11.738;2023-08-06T08:27:01;95667.03;;;16.46;100.00
48041;BME280;33815;48.386;11.738;2023-08-06T08:29:26;95659.75;;;16.41;100.00
48041;BME280;33815;48.386;11.738;2023-08-06T08:31:51;95653.38;;;16.23;100.00
48041;BME280;33815;48.386;11.738;2023-08-06T08:34:17;95673.00;;;16.21;100.00
48041;BME280;33815;48.386;11.738;2023-08-06T08:36:42;95659.09;;;16.98;100.00
48041;BME280;33815;48.386;11.738;2023-08-06T08:39:08;95657.78;;;17.57;94.57
48041;BME280;33815;48.386;11.738;2023-08-06T08:41:33;95665.09;;;17.55;92.85
48041;BME280;33815;48.386;11.738;2023-08-06T08:44:00;95670.28;;;17.87;90.21
48041;BME280;33815;48.386;11.738;2023-08-06T08:46:29;95666.38;;;16.95;91.68
48041;BME280;33815;48.386;11.738;2023-08-06T08:48:55;95666.44;;;16.37;97.14
48041;BME280;33815;48.386;11.738;2023-08-06T08:51:23;95672.44;;;16.05;100.00
48041;BME280;33815;48.386;11.738;2023-08-06T08:53:48;95674.91;;;15.93;100.00
48041;BME280;33815;48.386;11.738;2023-08-06T08:56:14;95681.78;;;15.68;100.00
48041;BME280;33815;48.386;11.738;2023-08-06T08:58:40;95678.53;;;15.92;100.00
48041;BME280;33815;48.386;11.738;2023-08-06T09:01:06;95671.66;;;15.91;100.00
48041;BME280;33815;48.386;11.738;2023-08-06T09:03:32;95677.91;;;16.10;100.00
48041;BME280;33815;48.386;11.738;2023-08-06T09:05:57;95668.31;;;16.30;98.10
48041;BME280;33815;48.386;11.738;2023-08-06T09:08:27;95659.59;;;16.74;94.94
48041;BME280;33815;48.386;11.738;2023-08-06T09:10:56;95672.50;;;17.21;95.61
48041;BME280;33815;48.386;11.738;2023-08-06T09:15:32;95673.38;;;17.34;91.34
48041;BME280;33815;48.386;11.738;2023-08-06T09:17:58;95660.34;;;16.88;94.93
48041;BME280;33815;48.386;11.738;2023-08-06T09:20:24;95679.53;;;16.57;97.39
48041;BME280;33815;48.386;11.738;2023-08-06T09:22:52;95665.44;;;15.79;100.00
48041;BME280;33815;48.386;11.738;2023-08-06T09:25:24;95672.31;;;15.80;100.00
48041;BME280;33815;48.386;11.738;2023-08-06T09:27:51;95693.53;;;15.18;100.00
48041;BME280;33815;48.386;11.738;2023-08-06T09:30:30;95664.50;;;14.51;100.00
48041;BME280;33815;48.386;11.738;2023-08-06T09:32:57;95679.94;;;14.88;100.00
48041;BME280;33815;48.386;11.738;2023-08-06T09:35:22;95686.03;;;15.02;100.00
48041;BME280;33815;48.386;11.738;2023-08-06T09:37:48;95678.59;;;15.32;100.00
48041;BME280;33815;48.386;11.738;2023-08-06T09:40:28;95671.50;;;15.33;100.00
48041;BME280;33815;48.386;11.738;2023-08-06T09:42:54;95674.13;;;15.39;100.00
48041;BME280;33815;48.386;11.738;2023-08-06T09:45:20;95675.94;;;15.52;100.00
48041;BME280;33815;48.386;11.738;2023-08-06T09:47:48;95684.41;;;15.68;100.00
48041;BME280;33815;48.386;11.738;2023-08-06T09:50:20;95672.09;;;15.88;100.00
48041;BME280;33815;48.386;11.738;2023-08-06T09:52:50;95670.28;;;15.62;100.00
48041;BME280;33815;48.386;11.738;2023-08-06T09:55:17;95667.28;;;15.18;100.00
48041;BME280;33815;48.386;11.738;2023-08-06T09:57:43;95693.47;;;14.85;100.00
48041;BME280;33815;48.386;11.738;2023-08-06T10:00:10;95702.41;;;14.49;100.00
48041;BME280;33815;48.386;11.738;2023-08-06T10:02:37;95693.56;;;13.73;100.00
48041;BME280;33815;48.386;11.738;2023-08-06T10:05:04;95708.53;;;13.51;100.00
48041;BME280;33815;48.386;11.738;2023-08-06T10:07:30;95703.13;;;13.09;100.00
48041;BME280;33815;48.386;11.738;2023-08-06T10:09:56;95693.59;;;12.80;100.00
48041;BME280;33815;48.386;11.738;2023-08-06T10:12:21;95693.00;;;12.63;100.00
48041;BME280;33815;48.386;11.738;2023-08-06T10:14:48;95700.38;;;12.74;100.00
48041;BME280;33815;48.386;11.738;2023-08-06T10:17:15;95700.19;;;12.76;100.00
48041;BME280;33815;48.386;11.738;2023-08-06T10:19:40;95701.75;;;12.92;100.00
48041;BME280;33815;48.386;11.738;2023-08-06T10:22:16;95679.59;;;13.09;100.00
48041;BME280;33815;48.386;11.738;2023-08-06T10:24:52;95697.63;;;13.47;100.00
48041;BME280;33815;48.386;11.738;2023-08-06T10:27:35;95696.03;;;13.81;100.00
48041;BME280;33815;48.386;11.738;2023-08-06T10:32:49;95692.81;;;14.14;100.00
48041;BME280;33815;48.386;11.738;2023-08-06T10:35:36;95686.00;;;14.82;100.00
48041;BME280;33815;48.386;11.738;2023-08-06T10:38:21;95682.81;;;15.20;100.00
48041;BME280;33815;48.386;11.738;2023-08-06T10:43:26;95670.06;;;15.70;100.00
48041;BME280;33815;48.386;11.738;2023-08-06T10:45:52;95665.03;;;15.69;100.00
48041;BME280;33815;48.386;11.738;2023-08-06T10:48:32;95661.34;;;16.03;100.00
48041;BME280;33815;48.386;11.738;2023-08-06T10:51:00;95673.94;;;16.40;100.00
48041;BME280;33815;48.386;11.738;2023-08-06T10:53:25;95685.28;;;16.34;100.00
48041;BME280;33815;48.386;11.738;2023-08-06T10:55:50;95683.38;;;15.96;100.00
48041;BME280;33815;48.386;11.738;2023-08-06T10:58:16;95687.59;;;16.10;100.00
48041;BME280;33815;48.386;11.738;2023-08-06T11:00:42;95699.53;;;16.06;100.00
48041;BME280;33815;48.386;11.738;2023-08-06T11:03:08;95694.75;;;16.48;100.00
48041;BME280;33815;48.386;11.738;2023-08-06T11:05:33;95693.56;;;16.83;100.00
48041;BME280;33815;48.386;11.738;2023-08-06T11:07:59;95690.50;;;16.92;100.00
48041;BME280;33815;48.386;11.738;2023-08-06T11:10:24;95697.19;;;16.82;100.00
48041;BME280;33815;48.386;11.738;2023-08-06T11:12:49;95694.34;;;16.83;100.00
48041;BME280;33815;48.386;11.738;2023-08-06T11:15:15;95711.75;;;16.91;100.00
48041;BME280;33815;48.386;11.738;2023-08-06T11:17:41;95697.59;;;16.85;100.00
48041;BME280;33815;48.386;11.738;2023-08-06T11:20:07;95695.38;;;16.89;100.00
48041;BME280;33815;48.386;11.738;2023-08-06T11:22:32;95704.84;;;16.97;97.39
48041;BME280;33815;48.386;11.738;2023-08-06T11:24:58;95701.88;;;16.79;94.55
48041;BME280;33815;48.386;11.738;2023-08-06T11:27:26;95713.97;;;16.42;98.32
48041;BME280;33815;48.386;11.738;2023-08-06T11:29:53;95700.06;;;16.28;100.00
48041;BME280;33815;48.386;11.738;2023-08-06T11:32:18;95707.16;;;16.73;98.25
48041;BME280;33815;48.386;11.738;2023-08-06T11:34:44;95714.06;;;16.74;98.59
48041;BME280;33815;48.386;11.738;2023-08-06T11:37:09;95711.44;;;16.67;100.00
48041;BME280;33815;48.386;11.738;2023-08-06T11:39:36;95711.91;;;16.57;99.38
48041;BME280;33815;48.386;11.738;2023-08-06T11:42:06;95721.97;;;15.75;100.00
48041;BME280;33815;48.386;11.738;2023-08-06T11:44:35;95723.78;;;15.07;100.00
48041;BME280;33815;48.386;11.738;2023-08-06T11:47:02;95740.44;;;14.66;100.00
48041;BME280;33815;48.386;11.738;2023-08-06T11:52:10;95738.31;;;14.97;100.00
48041;BME280;33815;48.386;11.738;2023-08-06T11:54:37;95734.28;;;14.94;100.00
48041;BME280;33815;48.386;11.738;2023-08-06T11:57:04;95714.69;;;14.97;100.00
48041;BME280;33815;48.386;11.738;2023-08-06T11:59:30;95740.16;;;15.23;100.00
48041;BME280;33815;48.386;11.738;2023-08-06T12:01:55;95734.31;;;15.21;100.00
48041;BME280;33815;48.386;11.738;2023-08-06T12:04:20;95728.84;;;15.36;100.00
48041;BME280;33815;48.386;11.738;2023-08-06T12:06:45;95724.63;;;15.41;100.00
48041;BME280;33815;48.386;11.738;2023-08-06T12:09:11;95720.59;;;15.52;100.00
48041;BME280;33815;48.386;11.738;2023-08-06T12:11:36;95731.28;;;15.71;100.00
48041;BME280;33815;48.386;11.738;2023-08-06T12:14:01;95742.81;;;15.70;100.00
48041;BME280;33815;48.386;11.738;2023-08-06T12:16:27;95722.59;;;15.90;100.00
48041;BME280;33815;48.386;11.738;2023-08-06T12:18:53;95727.75;;;16.44;100.00
48041;BME280;33815;48.386;11.738;2023-08-06T12:21:18;95727.34;;;16.34;98.07
48041;BME280;33815;48.386;11.738;2023-08-06T12:23:43;95728.69;;;16.56;98.16
48041;BME280;33815;48.386;11.738;2023-08-06T12:26:09;95713.19;;;16.80;98.90
48041;BME280;33815;48.386;11.738;2023-08-06T12:28:34;95711.53;;;16.92;93.29
48041;BME280;33815;48.386;11.738;2023-08-06T12:30:59;95720.44;;;17.30;90.73
48041;BME280;33815;48.386;11.738;2023-08-06T12:33:25;95733.25;;;17.20;91.24
48041;BME280;33815;48.386;11.738;2023-08-06T12:35:50;95708.41;;;17.09;87.96
48041;BME280;33815;48.386;11.738;2023-08-06T12:38:15;95724.94;;;17.23;89.57
48041;BME280;33815;48.386;11.738;2023-08-06T12:40:40;95739.09;;;16.83;91.25
48041;BME280;33815;48.386;11.738;2023-08-06T12:43:06;95751.47;;;16.76;93.55
48041;BME280;33815;48.386;11.738;2023-08-06T12:45:31;95725.94;;;16.38;95.25
48041;BME280;33815;48.386;11.738;2023-08-06T12:47:56;95748.06;;;15.76;100.00